x

East Lake Ontario - 20nm North Northeast Of Rochester, Ny (45012) Wave Buoy

7:50am - Mon 20th Oct 2014 All times are CDT. -5 hours from GMT.

  • Sig Wave height 2.3ft
  • Peak Period 3s
  • Average Period 3s
  • Wind
    16mph, 18mph gusts
  • Sea Temp 54°f
  • Air Temp 51°f
  • Sea Pressure 1014.2mb
  • East Lake Ontario  - 20nm North Northeast Of Rochester, Ny
  • East Lake Ontario  - 20nm North Northeast Of Rochester, Ny

More Historic Weather Station data

Upgrade to MSW Pro to gain access to the past 30 days of data for over 8000 Wavebouys and Weather Stations around the globe.

Join Pro

Comparision Forecast

View Surf forecast
   
Mon 10/20 7:50am 2.5ft 3s 3s 16 18 mph 1014.2mb 54f 51f
6:50am 2.5ft 3s 3s 13 16 mph 1013.8mb 54f 50f
5:50am 2.5ft 4s 3s 13 16 mph 1014.2mb 54f 49f
4:50am 2ft 4s 3s 13 16 mph 1014.5mb 54f 49f
3:50am 2ft 4s 3s 11 16 mph 1015.1mb 54f 49f
2:50am 2.5ft 5s 3s 13 16 mph 1015.4mb 54f 49f
1:50am 2.5ft 4s 3s 13 16 mph 1015.8mb 54f 49f
12:50am 2.5ft 5s 3s 18 22 mph 1016mb 54f 49f
Sun 10/19 9:50pm 2.5ft 5s 4s 7 11 mph 1016.9mb 54f 48f
8:50pm 2.5ft 4s 4s 11 13 mph 1017.3mb 54f 47f
7:50pm 3ft 5s 4s 13 18 mph 1017.6mb 55f 47f
6:50pm 3.5ft 4s 4s 16 22 mph 1017.9mb 55f 47f
5:50pm 3.5ft 4s 4s 20 22 mph 1017.8mb 55f 46f
4:50pm 3.5ft 4s 4s 18 22 mph 1018mb 55f 46f
3:50pm 2.5ft 4s 3s 16 20 mph 1018.1mb 55f 46f
2:50pm 2.5ft 5s 3s 18 22 mph 1018.3mb 55f 45f
1:50pm 2.5ft 4s 3s 20 25 mph 1018.5mb 55f 45f
12:50pm 2.5ft 4s 3s 16 22 mph 1018.7mb 55f 44f
11:50am 2.5ft 4s 3s 16 22 mph 1018.9mb 55f 44f
10:50am 2.5ft 4s 3s 11 16 mph 1019.3mb 55f 45f
9:50am 3.5ft 4s 4s 16 22 mph 1019.1mb 55f 43f
8:50am 3.5ft 4s 4s 18 25 mph 1018.9mb 55f 42f
7:50am 3ft 5s 4s 18 25 mph 1018.2mb 55f 43f
6:50am 3.5ft 4s 4s 18 22 mph 1017.6mb 55f 43f
5:50am 3.5ft 5s 4s 20 27 mph 1017.1mb 56f 43f
4:50am 4ft 5s 4s 20 25 mph 1016.4mb 56f 42f
3:50am 4.5ft 4s 4s 22 29 mph 1015.4mb 56f 42f
2:50am 4.5ft 4s 4s 25 29 mph 1014.5mb 56f 42f
1:50am 4.5ft 5s 4s 25 31 mph 1013.9mb 56f 43f
12:50am 4ft 5s 4s 18 22 mph 1013.4mb 56f 45f
Sat 10/18 11:50pm 4.5ft 5s 4s 22 27 mph 1012.9mb 56f 45f
10:50pm 5ft 5s 4s 22 27 mph 1012.4mb 55f 46f
9:50pm 4.5ft 4s 4s 22 27 mph 1011.6mb 55f 47f
8:50pm 4.5ft 5s 4s 25 29 mph 1010.7mb 56f 48f
7:50pm 4.5ft 5s 4s 22 27 mph 1010.1mb 55f 49f
6:50pm 5ft 5s 4s 22 27 mph 1009.2mb 55f 50f
5:50pm 5ft 5s 4s 22 29 mph 1007.9mb 56f 51f
4:50pm 4.5ft 6s 4s 22 27 mph 1006.7mb 56f 51f
3:50pm 4.5ft 5s 4s 22 25 mph 1005.7mb 56f 52f
2:50pm 4ft 6s 4s 25 29 mph 1004.8mb 56f 52f
1:50pm 4.5ft 5s 4s 20 22 mph 1004.1mb 56f 51f
12:50pm 4.5ft 5s 4s 18 22 mph 1003.1mb 56f 54f
11:50am 5ft 6s 4s 18 22 mph 1002.5mb 56f 54f
10:50am 5ft 6s 4s 22 27 mph 1001.8mb 56f 53f
9:50am 5.5ft 6s 4s 25 29 mph 1001.2mb 56f 55f
8:50am 5ft 6s 4s 25 29 mph 1000.8mb 55f 54f
7:50am 5ft 6s 4s 20 25 mph 1000.3mb 55f 56f
6:50am 4.5ft 6s 4s 22 27 mph 999.8mb 55f 56f
5:50am 4.5ft 5s 4s 20 25 mph 999.1mb 55f 57f
4:50am 3.5ft 4s 4s 18 22 mph 998.7mb 55f 57f
3:50am 2.5ft 4s 3s 16 18 mph 998.7mb 55f 57f
2:50am 2.5ft 3s 3s 18 20 mph 998.5mb 55f 58f
1:50am 2ft 3s 3s 18 22 mph 998.7mb 55f 58f
12:50am 1.6ft 3s 3s 11 13 mph 998.7mb 55f 59f
Fri 10/17 11:50pm 1.6ft 3s 3s 13 16 mph 999mb 55f 59f
10:50pm 1.3ft 3s 3s 11 13 mph 999.1mb 55f 59f
9:50pm 1.3ft 4s 3s 13 18 mph 999.4mb 55f 59f
8:50pm 1.3ft 3s 3s 11 13 mph 999.4mb 55f 58f
7:50pm 1.3ft 4s 3s 9
mph
999.6mb 56f 58f
6:50pm 1.6ft 4s 3s 9 11 mph 999.6mb 56f 59f
5:50pm 1.6ft 4s 3s 9
mph
1000.1mb 57f 59f
4:50pm 1.6ft 4s 3s 7
mph
999.7mb 56f 58f
3:50pm 1.6ft 4s 3s 7
mph
999.8mb 55f 58f
2:50pm 2ft 4s 3s 4
mph
1000.1mb 55f 58f
1:50pm 2.5ft 4s 3s 9 11 mph 1000.2mb 55f 60f
12:50pm 2.5ft 4s 3s 13 16 mph 1000.9mb 55f 58f
11:50am 3ft 4s 3s 18 22 mph 1001.5mb 55f 57f
10:50am 3ft 4s 3s 20 22 mph 1001.6mb 55f 56f
9:50am 2.5ft 4s 3s 18 20 mph 1001.8mb 55f 58f
8:50am 2.5ft 4s 3s 18 20 mph 1002mb 55f 59f
7:50am 2.5ft 5s 4s 16 22 mph 1001.9mb 56f 59f
6:50am 2.5ft 5s 4s 9 11 mph 1002.5mb 56f 57f
5:50am 3ft 5s 4s 11 13 mph 1002.6mb 56f 57f
4:50am 3.5ft 5s 4s 13 18 mph 1002.5mb 56f 57f
3:50am 3.5ft 5s 4s 20 22 mph 1002.1mb 56f 57f
2:50am 3.5ft 4s 4s 20 27 mph 1002.2mb 57f 57f
1:50am 3ft 4s 3s 18 20 mph 1002.5mb 57f 58f
12:50am 2.5ft 4s 3s 18 20 mph 1002.7mb 57f 58f
Thu 10/16 11:50pm 2.5ft 4s 3s 13 16 mph 1002.6mb 57f 58f
10:50pm 2ft 4s 3s 13 18 mph 1002.7mb 57f 58f
9:50pm 1.6ft 3s 3s 13 16 mph 1002.7mb 57f 58f
8:50pm 1ft 4s 3s 11 13 mph 1002.8mb 57f 59f
7:50pm 1ft 3s 3s 7 9 mph 1003.1mb 57f 58f
6:50pm 1ft 3s 3s 9
mph
1003mb 57f 57f
5:50pm 1ft 3s 3s 4
mph
1003.2mb 57f 57f
4:50pm 1ft 3s 3s 4
mph
1002.9mb 57f 57f
3:50pm 1.3ft 3s 3s 9 11 mph 1002.7mb 57f 60f
2:50pm 1.3ft 3s 3s 9
mph
1002.7mb 57f 64f